createdAt,value
2019-03-01T05:01:34.146Z,42.68
2019-03-01T05:02:34.154Z,42.64
2019-03-01T05:03:34.147Z,42.60
2019-03-01T05:04:34.151Z,42.56
2019-03-01T05:05:34.138Z,42.55
2019-03-01T05:06:34.126Z,42.55
2019-03-01T05:07:34.135Z,42.62
2019-03-01T05:08:34.111Z,43.04
2019-03-01T05:09:34.103Z,42.60
2019-03-01T05:10:34.083Z,42.59
2019-03-01T05:11:34.068Z,42.64
2019-03-01T05:12:34.061Z,42.73
2019-03-01T05:13:34.038Z,42.64
2019-03-01T05:14:34.022Z,42.71
2019-03-01T05:15:34.004Z,42.60
2019-03-01T05:16:33.988Z,42.61
2019-03-01T05:17:34.022Z,42.98
2019-03-01T05:18:33.964Z,43.33
2019-03-01T05:19:33.952Z,43.08
2019-03-01T05:20:33.951Z,42.99
2019-03-01T05:21:33.927Z,42.93
2019-03-01T05:22:33.921Z,43.03
2019-03-01T05:23:33.928Z,42.94
2019-03-01T05:24:33.914Z,42.74
2019-03-01T05:25:33.903Z,42.65
2019-03-01T05:26:33.901Z,42.75
2019-03-01T05:27:33.895Z,42.70
2019-03-01T05:28:33.906Z,42.63
2019-03-01T05:29:33.886Z,42.65
2019-03-01T05:30:33.879Z,43.57
2019-03-01T05:31:33.868Z,44.04
2019-03-01T05:32:33.866Z,52.05
2019-03-01T05:33:33.866Z,47.98
2019-03-01T05:34:33.852Z,49.87
2019-03-01T05:35:33.841Z,49.19
2019-03-01T05:36:33.832Z,47.69
2019-03-01T05:37:33.821Z,47.48
2019-03-01T05:38:33.826Z,47.76
2019-03-01T05:39:33.805Z,48.89
2019-03-01T05:40:33.813Z,48.92
2019-03-01T05:41:33.783Z,46.99
2019-03-01T05:42:33.775Z,46.69
2019-03-01T05:43:33.771Z,47.06
2019-03-01T05:44:33.754Z,47.29
2019-03-01T05:45:33.747Z,46.97
2019-03-01T05:46:33.745Z,49.36
2019-03-01T05:47:33.729Z,48.54
2019-03-01T05:48:33.743Z,48.63
2019-03-01T05:49:33.713Z,47.81
2019-03-01T05:50:33.703Z,47.28
2019-03-01T05:51:33.694Z,49.21
2019-03-01T05:52:33.678Z,49.38
2019-03-01T05:53:33.669Z,47.26
2019-03-01T05:54:33.667Z,48.68
2019-03-01T05:55:33.651Z,48.58
2019-03-01T05:56:33.635Z,47.25
2019-03-01T05:57:33.624Z,47.96
2019-03-01T05:58:33.616Z,48.06
2019-03-01T05:59:33.612Z,48.08
2019-03-01T06:00:33.591Z,48.51
2019-03-01T06:01:33.579Z,49.23
2019-03-01T06:02:33.574Z,46.08
2019-03-01T06:03:33.567Z,48.78
2019-03-01T06:04:33.571Z,48.44
2019-03-01T06:05:33.547Z,48.44
2019-03-01T06:06:33.541Z,48.99
2019-03-01T06:07:33.541Z,48.98
2019-03-01T06:08:33.530Z,48.60
2019-03-01T06:09:33.525Z,50.57
2019-03-01T06:10:33.524Z,50.59
2019-03-01T06:11:33.503Z,50.55
2019-03-01T06:12:33.497Z,49.55
2019-03-01T06:13:33.483Z,50.91
2019-03-01T06:14:33.473Z,49.30
2019-03-01T06:15:33.463Z,48.73
2019-03-01T06:16:33.441Z,48.51
2019-03-01T06:17:33.434Z,48.80
2019-03-01T06:18:33.413Z,49.03
2019-03-01T06:19:33.396Z,50.35
2019-03-01T06:20:33.395Z,49.43
2019-03-01T06:21:33.367Z,49.22
2019-03-01T06:22:33.347Z,48.12
2019-03-01T06:23:33.349Z,48.46
2019-03-01T06:24:33.329Z,49.54
2019-03-01T06:25:33.328Z,48.88
2019-03-01T06:26:33.311Z,48.09
2019-03-01T06:27:33.304Z,48.53
2019-03-01T06:28:33.292Z,48.26
2019-03-01T06:29:33.288Z,47.62
2019-03-01T06:39:53.750Z,44.21
2019-03-01T06:40:53.810Z,43.43
2019-03-01T06:41:53.721Z,44.71
2019-03-01T06:42:53.690Z,43.84
2019-03-01T06:45:19.205Z,44.14
2019-03-01T06:46:19.207Z,44.41
2019-03-01T06:47:19.230Z,44.38
2019-03-01T06:48:19.152Z,44.40
2019-03-01T06:49:19.148Z,45.41
2019-03-01T06:50:19.147Z,44.44
2019-03-01T06:51:28.377Z,43.82
2019-03-01T06:52:20.145Z,43.58
2019-03-01T06:53:19.136Z,43.31
2019-03-01T06:54:19.123Z,43.58
2019-03-01T06:55:19.112Z,43.99
2019-03-01T06:56:19.121Z,43.83
2019-03-01T06:58:07.680Z,45.73
2019-03-01T06:59:07.735Z,44.27
2019-03-01T07:00:07.671Z,43.89
2019-03-01T07:01:07.655Z,43.97
2019-03-01T07:02:07.653Z,43.32
2019-03-01T07:04:04.053Z,44.85
2019-03-01T07:05:04.107Z,44.60
2019-03-01T07:06:59.386Z,46.36
2019-03-01T07:07:59.374Z,44.75
2019-03-01T07:08:59.387Z,43.79
2019-03-01T07:11:15.836Z,44.58
2019-03-01T07:12:15.863Z,43.85
2019-03-01T07:13:15.762Z,45.64
2019-03-01T07:14:15.751Z,48.96
2019-03-01T07:15:15.735Z,45.92
2019-03-01T07:16:15.722Z,43.66
2019-03-01T07:17:15.727Z,43.00
2019-03-01T07:18:15.702Z,42.74
2019-03-01T07:19:15.685Z,42.61
2019-03-01T07:20:15.672Z,42.71
2019-03-01T07:21:15.664Z,42.89
2019-03-01T07:22:15.664Z,43.73
2019-03-01T07:23:15.665Z,44.27
2019-03-01T07:24:15.737Z,44.19
2019-03-01T07:26:22.727Z,52.78
2019-03-01T07:27:22.732Z,45.56
2019-03-01T07:28:22.717Z,45.90
2019-03-01T07:30:28.354Z,44.94
2019-03-01T07:31:28.308Z,47.46
2019-03-01T07:33:44.807Z,45.44
2019-03-01T07:34:44.761Z,53.82
2019-03-01T07:35:46.284Z,47.45
2019-03-01T07:36:44.721Z,44.76
2019-03-01T07:37:44.693Z,45.81
2019-03-01T07:38:44.648Z,46.20
2019-03-01T07:39:44.618Z,53.65
2019-03-01T07:40:44.578Z,64.78
2019-03-01T07:41:44.525Z,54.80
2019-03-01T07:42:44.512Z,44.42
2019-03-01T07:43:44.472Z,44.48
2019-03-01T07:45:24.022Z,50.31
2019-03-01T07:46:24.025Z,46.94
2019-03-01T07:47:24.023Z,46.09
2019-03-01T07:48:24.071Z,55.43
2019-03-01T07:49:24.024Z,47.12
2019-03-01T07:50:24.004Z,52.85
2019-03-01T07:51:26.974Z,44.92
2019-03-01T07:52:24.982Z,56.44
2019-03-01T07:54:40.522Z,52.86
2019-03-01T07:55:40.563Z,49.96
2019-03-01T07:56:40.813Z,44.36
2019-03-01T07:57:40.460Z,43.87
2019-03-01T07:58:40.418Z,42.84
2019-03-01T07:59:40.376Z,42.68
2019-03-01T08:00:40.331Z,42.62
2019-03-01T08:01:40.291Z,42.66
2019-03-01T08:02:40.766Z,42.69
2019-03-01T08:03:40.239Z,43.12
2019-03-01T08:04:40.199Z,46.02
2019-03-01T08:05:40.449Z,44.42
2019-03-01T08:06:40.145Z,43.40
2019-03-01T08:07:40.115Z,43.48
2019-03-01T08:08:40.157Z,43.11
2019-03-01T08:09:41.227Z,42.86
2019-03-01T08:10:40.016Z,43.03
2019-03-01T08:11:39.976Z,43.11
2019-03-01T08:12:42.527Z,44.05
2019-03-01T08:15:04.144Z,44.86
2019-03-01T08:17:31.644Z,45.10
2019-03-01T08:19:58.729Z,44.15
2019-03-01T08:20:56.261Z,43.94
2019-03-01T08:21:56.234Z,43.66
2019-03-01T08:22:56.819Z,43.23
2019-03-01T12:48:34.137Z,46.33
2019-03-01T12:49:35.248Z,46.83
2019-03-01T12:50:35.237Z,45.08
2019-03-01T12:51:35.231Z,45.87
2019-03-01T12:52:35.259Z,45.36
2019-03-01T12:53:35.220Z,48.67
2019-03-01T12:54:35.202Z,48.13
2019-03-01T12:55:35.204Z,48.26
2019-03-01T12:59:00.204Z,45.62
2019-03-01T12:59:01.626Z,0.00
2019-03-01T13:00:01.644Z,45.11
2019-03-01T13:01:01.588Z,44.81
2019-03-01T13:02:01.584Z,44.80
2019-03-01T13:03:05.300Z,47.05
2019-03-01T13:04:02.562Z,46.65
2019-03-01T13:05:01.566Z,45.99
2019-03-01T13:06:03.875Z,45.91
2019-03-01T13:07:01.546Z,45.52
2019-03-01T13:08:01.549Z,45.65
2019-03-01T13:09:01.532Z,45.63
2019-03-01T13:10:03.215Z,46.96
2019-03-01T13:11:02.511Z,48.15
2019-03-01T13:12:01.522Z,46.88
2019-03-01T13:13:02.083Z,45.57
2019-03-01T13:14:02.507Z,46.62
2019-03-01T13:15:01.519Z,46.04
2019-03-01T13:16:01.530Z,45.94
2019-03-01T13:17:02.549Z,44.68
2019-03-01T13:18:03.488Z,46.91
2019-03-01T13:19:02.488Z,47.03
2019-03-01T13:20:02.564Z,46.26
2019-03-01T13:21:01.455Z,45.39
2019-03-01T13:22:01.460Z,45.27
2019-03-01T13:23:04.870Z,45.95
2019-03-01T13:24:01.430Z,45.56
2019-03-01T13:25:01.425Z,46.14
2019-03-01T13:26:02.941Z,45.54
2019-03-01T13:27:02.412Z,46.58
2019-03-01T13:28:01.416Z,45.43
2019-03-01T13:29:01.395Z,45.72
2019-03-01T13:30:01.393Z,46.64
2019-03-01T13:31:01.371Z,46.07
2019-03-01T13:32:02.381Z,45.87
2019-03-01T13:33:02.246Z,46.25
2019-03-01T13:34:02.363Z,46.68
2019-03-01T13:35:01.353Z,47.35
2019-03-01T13:36:03.569Z,46.00
2019-03-01T13:37:02.354Z,47.64
2019-03-01T13:38:01.382Z,50.70
2019-03-01T13:39:01.336Z,49.70
2019-03-01T13:40:01.326Z,46.57
2019-03-01T13:41:02.298Z,47.36
2019-03-01T13:42:02.303Z,46.67
2019-03-01T13:43:01.297Z,46.61
2019-03-01T13:44:04.106Z,47.49
2019-03-01T13:45:03.328Z,47.57
2019-03-01T13:46:01.466Z,48.14
2019-03-01T13:47:01.463Z,47.78
2019-03-01T13:48:03.209Z,47.43
2019-03-01T13:49:01.455Z,48.82
2019-03-01T13:50:05.601Z,48.39
2019-03-01T13:51:03.452Z,46.33
2019-03-01T13:52:01.457Z,46.22
2019-03-01T13:53:01.443Z,48.79
2019-03-01T13:54:01.428Z,54.16
2019-03-01T13:55:01.826Z,46.94
2019-03-01T13:56:01.487Z,46.21
2019-03-01T13:57:02.041Z,47.46
2019-03-01T13:58:01.852Z,47.96
2019-03-01T13:59:03.111Z,46.85
2019-03-01T14:00:02.485Z,46.17
2019-03-01T14:01:01.405Z,46.64
2019-03-01T14:02:04.354Z,47.21
2019-03-01T14:03:02.405Z,51.03
2019-03-01T14:04:03.267Z,52.70
2019-03-01T14:05:03.187Z,56.29
2019-03-01T14:06:02.229Z,61.05
2019-03-01T14:07:02.385Z,56.97
2019-03-01T14:08:08.577Z,55.01
2019-03-01T14:09:03.391Z,57.40
2019-03-01T14:10:04.728Z,58.68
2019-03-01T14:11:01.364Z,57.54
2019-03-01T14:12:01.371Z,57.14
2019-03-01T14:13:01.344Z,56.58
2019-03-01T14:14:01.363Z,56.01
2019-03-01T14:15:02.941Z,56.29
2019-03-01T14:16:03.206Z,55.50
2019-03-01T14:17:01.324Z,56.24
2019-03-01T14:18:02.013Z,57.32
2019-03-01T14:19:01.842Z,54.10
2019-03-01T14:20:01.292Z,54.40
2019-03-01T14:21:01.285Z,55.53
2019-03-01T14:22:01.297Z,53.91
2019-03-01T14:23:01.263Z,54.59
2019-03-01T14:24:01.271Z,53.35
2019-03-01T14:25:02.434Z,53.42
2019-03-01T14:26:02.240Z,53.34
2019-03-01T14:27:01.233Z,53.17
2019-03-01T14:28:02.074Z,53.72
2019-03-01T14:29:02.230Z,52.43
2019-03-01T14:30:02.241Z,50.47
2019-03-01T14:31:04.041Z,51.51
2019-03-01T14:32:02.829Z,51.85
2019-03-01T14:33:01.211Z,53.11
2019-03-01T14:34:01.209Z,52.23
2019-03-01T14:35:01.181Z,53.36
2019-03-01T14:36:02.855Z,52.29
2019-03-01T14:37:15.148Z,52.51
2019-03-01T14:38:01.233Z,52.10
2019-03-01T14:39:03.496Z,52.80
2019-03-01T14:40:02.159Z,52.18
2019-03-01T14:41:01.146Z,52.67
2019-03-01T14:42:01.841Z,51.78
2019-03-01T14:43:01.130Z,51.72
2019-03-01T14:44:01.852Z,52.63
2019-03-01T14:45:01.128Z,53.67
2019-03-01T14:46:01.849Z,54.10
2019-03-01T14:47:01.111Z,53.19
2019-03-01T14:48:01.342Z,51.98
2019-03-01T14:49:02.877Z,52.62
2019-03-01T14:50:01.133Z,52.39
2019-03-01T14:51:01.081Z,58.00
2019-03-01T14:52:01.857Z,58.13
2019-03-01T14:53:01.091Z,70.33
2019-03-01T14:54:01.051Z,69.26
2019-03-01T14:55:01.067Z,69.95
2019-03-01T14:56:01.693Z,69.69
2019-03-01T14:57:02.682Z,62.67
2019-03-01T14:58:01.020Z,58.99
2019-03-01T14:59:01.010Z,55.27
2019-03-01T15:00:01.669Z,54.38
2019-03-01T15:01:01.882Z,57.43
2019-03-01T15:02:03.146Z,52.32
2019-03-01T15:03:02.690Z,53.16
2019-03-01T15:04:00.977Z,51.87
2019-03-01T15:05:05.255Z,51.55
2019-03-01T15:06:02.664Z,52.74
2019-03-01T15:07:01.008Z,52.70
2019-03-01T15:08:03.106Z,53.10
2019-03-01T15:09:00.984Z,53.74
2019-03-01T15:10:00.982Z,54.22
2019-03-01T15:11:06.390Z,53.71
2019-03-01T15:12:02.365Z,53.47
2019-03-01T15:13:00.939Z,53.66
2019-03-01T15:14:01.344Z,53.43
2019-03-01T15:15:00.961Z,53.38
2019-03-01T15:16:04.236Z,52.28
2019-03-01T15:17:01.938Z,53.44
2019-03-01T15:18:01.370Z,53.79
2019-03-01T15:19:00.921Z,52.20
2019-03-01T15:20:01.861Z,53.01
2019-03-01T15:21:02.508Z,52.29
2019-03-01T15:22:03.823Z,51.16
2019-03-01T15:23:01.694Z,51.58
2019-03-01T15:24:01.515Z,52.44
2019-03-01T15:25:00.887Z,53.58
2019-03-01T15:26:00.876Z,52.06
2019-03-01T15:27:04.212Z,52.39
2019-03-01T15:28:00.864Z,51.86
2019-03-01T15:29:00.860Z,51.31
2019-03-01T15:30:00.843Z,50.47
2019-03-01T15:31:00.841Z,53.14
2019-03-01T15:32:00.825Z,52.32
2019-03-01T15:33:01.350Z,49.64
2019-03-01T15:34:02.202Z,49.19
2019-03-01T15:35:03.924Z,50.12
2019-03-01T15:36:01.802Z,48.95
2019-03-01T15:37:01.373Z,48.83
2019-03-01T15:38:00.777Z,50.15
2019-03-01T15:39:00.764Z,50.25
2019-03-01T15:40:00.762Z,50.49
2019-03-01T15:41:03.631Z,51.91
2019-03-01T15:42:00.770Z,53.43
2019-03-01T15:43:00.769Z,49.87
2019-03-01T15:44:00.731Z,49.25
2019-03-01T15:45:01.597Z,49.15
2019-03-01T15:46:01.729Z,48.76
2019-03-01T15:47:01.201Z,49.55
2019-03-01T15:48:02.084Z,49.81
2019-03-01T15:49:01.700Z,50.35
2019-03-01T15:50:00.712Z,51.59
2019-03-01T15:51:02.441Z,51.42
2019-03-01T15:52:01.678Z,50.28
2019-03-01T15:53:01.361Z,50.29
2019-03-01T15:54:00.989Z,50.28
2019-03-01T15:55:01.649Z,49.61
2019-03-01T15:56:02.177Z,50.83
2019-03-01T15:57:01.677Z,49.78
2019-03-01T15:58:01.363Z,50.28
2019-03-01T15:59:00.654Z,51.68
2019-03-01T16:00:02.754Z,51.61
2019-03-01T16:01:00.742Z,50.22
2019-03-01T16:02:00.633Z,50.25
2019-03-01T16:03:01.384Z,51.68
2019-03-01T16:04:01.198Z,49.38
2019-03-01T16:05:00.622Z,49.35
2019-03-01T16:06:00.644Z,49.44
2019-03-01T16:07:00.597Z,50.53
2019-03-01T16:08:01.362Z,50.67
2019-03-01T16:09:01.356Z,49.25
2019-03-01T16:10:01.213Z,48.99
2019-03-01T16:11:01.664Z,49.81
2019-03-01T16:12:01.365Z,49.30
2019-03-01T16:13:00.553Z,49.31
2019-03-01T16:14:00.536Z,50.00
2019-03-01T16:15:01.548Z,49.83
2019-03-01T16:16:01.681Z,50.47
2019-03-01T16:17:02.210Z,49.25
2019-03-01T16:18:01.837Z,50.09
2019-03-01T16:19:00.578Z,51.72
2019-03-01T16:20:00.615Z,51.89
2019-03-01T16:21:01.989Z,50.33
2019-03-01T16:22:02.522Z,51.28
2019-03-01T16:23:01.475Z,49.89
2019-03-01T16:24:01.211Z,51.55
2019-03-01T16:25:00.602Z,53.86
2019-03-01T16:26:00.474Z,52.15
2019-03-01T16:27:02.203Z,51.23
2019-03-01T16:28:01.650Z,50.11
2019-03-01T16:29:03.968Z,50.96
2019-03-01T16:30:02.373Z,50.09
2019-03-01T16:31:00.573Z,50.07
2019-03-01T16:32:01.178Z,50.31
2019-03-01T16:33:00.455Z,50.60
2019-03-01T16:34:00.933Z,50.60
2019-03-01T16:35:02.769Z,50.39
2019-03-01T16:36:01.092Z,50.15
2019-03-01T16:37:01.444Z,51.41
2019-03-01T16:38:02.508Z,51.19
2019-03-01T16:39:01.424Z,49.70
2019-03-01T16:40:01.467Z,49.76
2019-03-01T16:41:01.493Z,50.48
2019-03-01T16:42:03.180Z,49.83
2019-03-01T16:43:00.877Z,49.77
2019-03-01T16:44:01.309Z,50.96
2019-03-01T16:45:01.403Z,50.19
2019-03-01T16:46:00.498Z,49.99
2019-03-01T16:47:03.479Z,50.95
2019-03-01T16:48:02.393Z,50.92
2019-03-01T16:49:00.399Z,51.73
2019-03-01T16:50:02.900Z,51.22
2019-03-01T16:51:03.796Z,50.97
2019-03-01T16:52:00.371Z,49.51
2019-03-01T16:53:04.333Z,48.69
2019-03-01T16:54:01.320Z,50.31
2019-03-01T16:55:00.321Z,51.98
2019-03-01T16:56:02.509Z,53.90
2019-03-01T16:57:01.418Z,53.99
2019-03-01T16:58:06.889Z,52.29
2019-03-01T16:59:03.833Z,51.34
2019-03-01T17:00:00.372Z,52.65
2019-03-01T17:01:00.901Z,53.22
2019-03-01T17:02:06.052Z,51.21
2019-03-01T17:03:02.374Z,51.56
2019-03-01T17:04:00.283Z,52.51
2019-03-01T17:05:03.717Z,51.96
2019-03-01T17:06:00.238Z,52.90
2019-03-01T17:07:00.344Z,51.93
2019-03-01T17:08:05.633Z,51.38
2019-03-01T17:09:01.237Z,50.65
2019-03-01T17:10:00.884Z,50.89
2019-03-01T17:11:02.547Z,50.28
2019-03-01T17:12:02.782Z,50.27
2019-03-01T17:13:01.769Z,49.56
2019-03-01T17:14:02.696Z,49.67
2019-03-01T17:15:01.527Z,50.84
2019-03-01T17:16:00.709Z,50.95
2019-03-01T17:17:00.726Z,52.09
2019-03-01T17:18:00.208Z,51.44
2019-03-01T17:19:00.866Z,51.90
2019-03-01T17:20:02.310Z,52.80
2019-03-01T17:21:01.862Z,52.28
2019-03-01T17:22:00.875Z,51.86
2019-03-01T17:23:03.074Z,53.82
2019-03-01T17:24:02.366Z,55.53
2019-03-01T17:25:00.258Z,53.50
2019-03-01T17:26:00.125Z,52.93
2019-03-01T17:27:01.968Z,54.95
2019-03-01T17:28:01.125Z,51.53
2019-03-01T17:29:03.078Z,52.47
2019-03-01T17:30:00.927Z,54.68
2019-03-01T17:31:00.117Z,54.44
2019-03-01T17:32:02.028Z,52.69
2019-03-01T17:33:01.709Z,52.68
2019-03-01T17:34:00.123Z,53.90
2019-03-01T17:35:01.099Z,53.85
2019-03-01T17:36:01.752Z,54.39
2019-03-01T17:37:00.877Z,56.45
2019-03-01T17:38:00.105Z,58.36
2019-03-01T17:39:00.062Z,53.99
2019-03-01T17:40:01.075Z,53.10
2019-03-01T17:41:00.892Z,53.48
2019-03-01T17:42:00.040Z,52.99
2019-03-01T17:43:00.063Z,51.68
2019-03-01T17:44:00.060Z,52.33
2019-03-01T17:45:00.036Z,53.94
2019-03-01T17:46:00.034Z,53.63
2019-03-01T17:47:00.031Z,52.00
2019-03-01T17:48:01.731Z,53.93
2019-03-01T17:49:00.001Z,53.47
2019-03-01T17:50:00.883Z,52.45
2019-03-01T17:51:00.888Z,52.06
2019-03-01T17:52:00.361Z,50.42
2019-03-01T17:53:00.026Z,52.12
2019-03-01T17:53:59.966Z,52.15
2019-03-01T17:55:01.422Z,52.99
2019-03-01T17:56:00.947Z,53.80
2019-03-01T17:56:59.941Z,53.37
2019-03-01T17:57:59.958Z,55.25
2019-03-01T17:59:00.428Z,53.82
2019-03-01T17:59:59.941Z,53.00
2019-03-01T18:01:02.779Z,52.09
2019-03-01T18:02:01.365Z,52.41
2019-03-01T18:02:59.907Z,51.96
2019-03-01T18:04:01.654Z,51.44
2019-03-01T18:05:00.901Z,51.51
2019-03-01T18:05:59.896Z,52.36
2019-03-01T18:06:59.876Z,51.85
2019-03-01T18:08:03.532Z,53.14
2019-03-01T18:09:00.887Z,54.50
2019-03-01T18:10:00.371Z,55.51
2019-03-01T18:11:00.250Z,52.40
2019-03-01T18:12:00.876Z,53.47
2019-03-01T18:13:00.377Z,53.16
2019-03-01T18:14:00.777Z,52.98
2019-03-01T18:15:01.370Z,52.32
2019-03-01T18:15:59.845Z,52.96
2019-03-01T18:17:00.467Z,53.67
2019-03-01T18:18:00.838Z,52.08
2019-03-01T18:18:59.896Z,52.25
2019-03-01T18:20:01.578Z,53.24
2019-03-01T18:20:59.831Z,53.23
2019-03-01T18:21:59.820Z,53.53
2019-03-01T18:23:02.385Z,52.84
2019-03-01T18:23:59.872Z,50.36
2019-03-01T18:25:00.365Z,51.43
2019-03-01T18:26:03.310Z,51.56
2019-03-01T18:26:59.803Z,53.87
2019-03-01T18:28:00.207Z,53.01
2019-03-01T18:29:00.942Z,52.49
2019-03-01T18:30:00.770Z,50.68
2019-03-01T18:30:59.760Z,53.66
2019-03-01T18:31:59.790Z,54.15
2019-03-01T18:33:00.366Z,49.54
2019-03-01T18:34:00.352Z,50.49
2019-03-01T18:35:01.790Z,51.18
2019-03-01T18:36:00.377Z,50.39
2019-03-01T18:36:59.756Z,50.43
2019-03-01T18:37:59.764Z,50.89
2019-03-01T18:39:00.227Z,49.29
2019-03-01T18:40:00.753Z,50.78
2019-03-01T18:41:01.316Z,50.16
2019-03-01T18:42:02.427Z,52.46
2019-03-01T18:43:00.721Z,50.80
2019-03-01T18:43:59.724Z,50.82
2019-03-01T18:44:59.727Z,50.20
2019-03-01T18:46:00.378Z,53.21
2019-03-01T18:46:59.722Z,51.62
2019-03-01T18:48:00.221Z,52.72
2019-03-01T18:48:59.698Z,53.09
2019-03-01T18:49:59.704Z,54.22
2019-03-01T18:51:03.410Z,53.19
2019-03-01T18:52:01.371Z,52.07
2019-03-01T18:52:59.681Z,52.17
2019-03-01T18:54:00.658Z,50.98
2019-03-01T18:55:01.376Z,52.11
2019-03-01T18:56:00.375Z,54.05
2019-03-01T18:57:00.781Z,52.76
2019-03-01T18:58:31.527Z,51.91
2019-03-01T18:58:59.647Z,50.27
2019-03-01T19:00:01.191Z,51.74
2019-03-01T19:01:00.648Z,54.96
2019-03-01T19:02:00.858Z,51.03
2019-03-01T19:03:00.941Z,51.76
2019-03-01T19:04:00.612Z,51.43
2019-03-01T19:05:00.677Z,54.75
2019-03-01T19:06:00.629Z,55.18
2019-03-01T19:06:59.609Z,49.17
2019-03-01T19:08:00.772Z,50.02
2019-03-01T19:09:00.594Z,50.87
2019-03-01T19:09:59.595Z,50.47
2019-03-01T19:11:02.623Z,50.06
2019-03-01T19:12:00.577Z,52.97
2019-03-01T19:12:59.570Z,50.44
2019-03-01T19:14:01.831Z,49.96
2019-03-01T19:15:01.399Z,50.55
2019-03-01T19:15:59.543Z,51.62
2019-03-01T19:17:01.776Z,51.98
2019-03-01T19:18:00.536Z,50.57
2019-03-01T19:18:59.509Z,51.43
2019-03-01T19:20:01.889Z,52.36
2019-03-01T19:21:00.525Z,51.23
2019-03-01T19:21:59.502Z,50.56
2019-03-01T19:22:59.491Z,51.12
2019-03-01T19:23:59.903Z,50.36
2019-03-01T19:24:59.898Z,52.09
2019-03-01T19:26:01.745Z,52.87
2019-03-01T19:27:00.485Z,52.46
2019-03-01T19:27:59.475Z,50.29
2019-03-01T19:29:02.667Z,50.45
2019-03-01T19:29:59.449Z,57.16
2019-03-01T19:30:59.481Z,55.04
2019-03-01T19:31:59.482Z,53.48
2019-03-01T19:33:02.340Z,52.21
2019-03-01T19:34:00.246Z,51.85
2019-03-01T19:34:59.451Z,51.99
2019-03-01T19:36:00.612Z,48.98
2019-03-01T19:37:00.424Z,54.59
2019-03-01T19:37:59.400Z,53.00
2019-03-01T19:39:00.414Z,53.16
2019-03-01T19:40:00.399Z,52.99
2019-03-01T19:40:59.900Z,53.63
2019-03-01T19:41:59.383Z,51.74
2019-03-01T19:43:00.367Z,51.76
2019-03-01T19:43:59.351Z,53.43
2019-03-01T19:45:00.747Z,51.88
2019-03-01T19:46:00.350Z,53.95
2019-03-01T19:46:59.920Z,53.56
2019-03-01T19:48:02.986Z,53.49
2019-03-01T19:49:00.310Z,53.45
2019-03-01T19:49:59.396Z,53.58
2019-03-01T19:51:01.899Z,54.21
2019-03-01T19:52:00.304Z,57.13
2019-03-01T19:52:59.746Z,57.32
2019-03-01T19:54:01.191Z,52.97
2019-03-01T19:55:00.334Z,52.23
2019-03-01T19:55:59.266Z,55.83
2019-03-01T19:57:01.498Z,54.64
2019-03-01T19:58:00.258Z,53.60
2019-03-01T19:58:59.476Z,53.87
2019-03-01T20:00:00.306Z,53.73
2019-03-01T20:00:59.265Z,52.04
2019-03-01T20:01:59.276Z,52.71
2019-03-01T20:02:59.238Z,54.65
2019-03-01T20:03:59.227Z,55.74
2019-03-01T20:04:59.218Z,53.35
2019-03-01T20:05:59.897Z,54.53
2019-03-01T20:07:01.350Z,55.81
2019-03-01T20:07:59.201Z,53.69
2019-03-01T20:09:01.630Z,55.14
2019-03-01T20:10:00.294Z,55.13
2019-03-01T20:10:59.186Z,53.28
2019-03-01T20:12:02.620Z,55.08
2019-03-01T20:13:00.197Z,55.51
2019-03-01T20:13:59.182Z,55.55
2019-03-01T20:14:59.186Z,53.97
2019-03-01T20:15:59.156Z,53.38
2019-03-01T20:17:00.749Z,55.13
2019-03-01T20:17:59.754Z,53.89
2019-03-01T20:18:59.136Z,54.30
2019-03-01T20:19:59.145Z,54.16
2019-03-01T20:20:59.129Z,52.94
2019-03-01T20:21:59.160Z,53.75
2019-03-01T20:22:59.890Z,52.72
2019-03-01T20:24:01.843Z,53.58
2019-03-01T20:25:00.116Z,54.94
2019-03-01T20:25:59.105Z,54.22
2019-03-01T20:26:59.891Z,54.94
2019-03-01T20:28:00.123Z,56.14
2019-03-01T20:28:59.092Z,55.64
2019-03-01T20:29:59.907Z,55.92
2019-03-01T20:31:01.511Z,56.03
2019-03-01T20:32:00.065Z,54.96
2019-03-01T20:32:59.913Z,54.59
2019-03-01T20:34:01.953Z,55.21
2019-03-01T20:35:00.049Z,54.77
2019-03-01T20:35:59.031Z,55.36
2019-03-01T20:36:59.747Z,54.75
2019-03-01T20:38:00.033Z,54.85
2019-03-01T20:39:00.911Z,55.16
2019-03-01T20:39:59.015Z,55.91
2019-03-01T20:41:03.086Z,59.00
2019-03-01T20:42:00.012Z,53.42
2019-03-01T20:43:06.398Z,52.70
2019-03-01T20:44:01.161Z,53.77
2019-03-01T20:45:00.261Z,53.84
2019-03-01T20:45:59.009Z,54.43
2019-03-01T20:46:59.420Z,56.02
2019-03-01T20:47:58.979Z,56.03
2019-03-01T20:49:00.686Z,53.70
2019-03-01T20:50:00.398Z,52.40
2019-03-01T20:50:58.958Z,52.88
2019-03-01T20:52:02.372Z,52.80
2019-03-01T20:52:59.748Z,51.71
2019-03-01T20:54:01.016Z,53.23
2019-03-01T20:55:00.646Z,54.38
2019-03-01T20:55:59.917Z,54.07
2019-03-01T20:56:59.412Z,52.37
2019-03-01T20:57:59.734Z,52.14
2019-03-01T20:58:59.899Z,53.92
2019-03-01T20:59:58.872Z,53.03
2019-03-01T21:01:01.897Z,50.62
2019-03-01T21:01:59.871Z,53.46
2019-03-01T21:02:58.861Z,51.35
2019-03-01T21:04:01.457Z,51.87
2019-03-01T21:04:59.868Z,53.33
2019-03-01T21:06:01.718Z,51.25
2019-03-01T21:06:59.830Z,52.51
2019-03-01T21:07:58.820Z,50.72
2019-03-01T21:09:00.671Z,51.56
2019-03-01T21:09:59.813Z,51.31
2019-03-01T21:10:58.796Z,50.71
2019-03-01T21:12:01.114Z,51.02
2019-03-01T21:13:00.411Z,49.33
2019-03-01T21:13:58.834Z,52.23
2019-03-01T21:15:01.897Z,51.13
2019-03-01T21:15:58.801Z,52.96
2019-03-01T21:16:58.796Z,51.32
2019-03-01T21:17:59.405Z,49.60
2019-03-01T21:18:59.958Z,49.85
2019-03-01T21:19:59.775Z,48.52
2019-03-01T21:20:58.815Z,47.53
2019-03-01T21:22:01.609Z,49.75
2019-03-01T21:22:59.744Z,47.60
2019-03-01T21:23:58.803Z,48.93
2019-03-01T21:24:59.411Z,48.52
2019-03-01T21:25:59.755Z,49.72
2019-03-01T21:26:58.733Z,46.53
2019-03-01T21:28:00.958Z,45.53
2019-03-01T21:28:59.745Z,48.01
2019-03-01T21:29:58.720Z,46.40
2019-03-01T21:30:59.027Z,48.17
2019-03-01T21:31:59.694Z,46.52
2019-03-01T21:32:59.411Z,46.16
2019-03-01T21:33:59.448Z,45.84
2019-03-01T21:35:00.284Z,46.62
2019-03-01T21:35:58.669Z,47.79
2019-03-01T21:36:59.081Z,47.92
2019-03-01T21:37:59.678Z,51.55
2019-03-01T21:38:58.655Z,47.47
2019-03-01T21:39:59.231Z,45.96
2019-03-01T21:40:59.648Z,46.98
2019-03-01T21:41:58.651Z,47.06
2019-03-01T21:43:00.187Z,46.96
2019-03-01T21:43:59.609Z,45.12
2019-03-01T21:44:58.633Z,43.97
2019-03-01T21:45:59.061Z,45.10
2019-03-01T21:46:59.608Z,47.07
2019-03-01T21:47:58.601Z,45.46
2019-03-01T21:49:00.491Z,47.13
2019-03-01T21:49:59.979Z,48.38
2019-03-01T21:50:59.577Z,47.53
2019-03-01T21:51:58.563Z,45.77
2019-03-01T21:53:01.836Z,47.66
2019-03-01T21:53:59.565Z,46.25
2019-03-01T21:54:58.583Z,44.77
2019-03-01T21:56:00.672Z,45.06
2019-03-01T21:57:00.554Z,50.32
2019-03-01T21:57:58.539Z,46.01
2019-03-01T21:58:58.526Z,47.16
2019-03-01T21:59:58.536Z,46.69
2019-03-01T22:00:58.513Z,45.62
2019-03-01T22:01:58.520Z,46.07
2019-03-01T22:02:58.505Z,46.50
2019-03-01T22:03:59.305Z,45.45
2019-03-01T22:04:59.521Z,45.56
2019-03-01T22:05:58.917Z,46.93
2019-03-01T22:07:01.973Z,46.68
2019-03-01T22:07:59.481Z,46.06
2019-03-01T22:08:58.479Z,45.53
2019-03-01T22:09:59.621Z,45.94
2019-03-01T22:10:59.478Z,46.53
2019-03-01T22:11:58.915Z,48.82
2019-03-01T22:13:00.480Z,47.40
2019-03-01T22:13:59.469Z,46.39
2019-03-01T22:14:58.478Z,50.78
2019-03-01T22:16:01.042Z,46.81
2019-03-01T22:16:58.472Z,45.88
2019-03-01T22:17:58.469Z,45.18
2019-03-01T22:18:59.716Z,46.00
2019-03-01T22:19:59.932Z,50.15
2019-03-01T22:20:58.447Z,52.21
2019-03-01T22:21:59.524Z,48.36
2019-03-01T22:22:59.433Z,45.84
2019-03-01T22:23:58.427Z,45.98
2019-03-01T22:25:01.716Z,47.22
2019-03-01T22:25:59.436Z,46.17
2019-03-01T22:26:58.421Z,45.72
2019-03-01T22:28:01.223Z,44.97
2019-03-01T22:28:59.398Z,44.21
2019-03-01T22:29:58.395Z,44.12
2019-03-01T22:31:00.251Z,45.53
2019-03-01T22:31:59.364Z,50.12
2019-03-01T22:32:58.351Z,44.72
2019-03-01T22:33:58.398Z,43.72
2019-03-01T22:34:58.362Z,43.18
2019-03-01T22:35:58.386Z,44.50
2019-03-01T22:36:58.362Z,46.02
2019-03-01T22:38:00.813Z,43.16
2019-03-01T22:39:00.340Z,46.72
2019-03-01T22:39:58.328Z,50.94
2019-03-01T22:41:00.641Z,49.34
2019-03-01T22:41:59.298Z,56.92
2019-03-01T22:42:58.332Z,48.49
2019-03-01T22:44:01.633Z,49.26